Terminal Aerodrome Forecast
Issued by NWS

Home | Current Version | Previous Version | Graphics & Text | Print | Product List | Glossary On
Versions: 1 2 3 4 5 6 7 8 9 10 11 12 13
000
FTUS43 KBIS 011912 AAA
TAFJMS
TAF AMD
KJMS 011912Z 0119/0218 03012KT P6SM SKC
     FM020800 20004KT P6SM SCT080
     FM021200 25006KT P6SM BKN080=

USA.gov is the U.S. government's official web portal to all federal, state and local government web resources and services.